DFOO

Bobo Dioulasso Airport

Bobo Dioulasso, Burkina Faso
METAR DFOO 212300Z 00000KT CAVOK 30/08 Q1010
Observed Flight Rules
Feb-21 @ 23:00 UTC (6 hours ago) Visual Flight Rules
Wind Visibility Clouds
Calm 10,000+ meters
  • Clear skies
Temperatures Readings
Current 30°C / 86°F
Dewpoint 8°C / 46°F
Humidity 25%
Altimeter 29.82" Hg
Pressure 1010 hPa
Elevation 460
METAR DFOO 212300Z 00000KT CAVOK 30/08 Q1010
Observed Flight Rules
Feb-21 @ 23:00 UTC
(6 hours ago)
VFR
Wind Visibility
Calm 10,000+ meters
Clouds
  • Clear skies
Temperature Dewpoint
30°C / 86°F 8°C / 46°F
Humidity Altimeter Pressure
25% 29.82" Hg 1010 hPa